Time;durP1;ratioP1;P1;durP2;ratioP2;P2;SDS_P1;SDS_P2;PMS_P1;PMS_P2;Temp;Humidity;BMP_temperature;BMP_pressure;BME280_temperature;BME280_humidity;BME280_pressure;Samples;Min_cycle;Max_cycle;Signal;HPM_P1;HPM_P2
2022/03/12 00:00:01;;;;;;;2.67;1.92;;;17.60;33.90;;;;;;5126428;27;47938;-75
2022/03/12 00:02:30;;;;;;;3.08;1.98;;;17.60;34.20;;;;;;5124311;27;45294;-75
2022/03/12 00:04:57;;;;;;;2.97;2.10;;;17.60;33.70;;;;;;5125887;27;45276;-75
2022/03/12 00:07:27;;;;;;;3.00;1.90;;;17.50;33.80;;;;;;5125372;27;45493;-76
2022/03/12 00:09:54;;;;;;;2.25;1.58;;;17.50;33.90;;;;;;5125370;27;46434;-75
2022/03/12 00:12:22;;;;;;;3.28;1.88;;;17.50;33.70;;;;;;5126268;27;45238;-75
2022/03/12 00:14:49;;;;;;;1.58;1.40;;;17.50;33.70;;;;;;5127138;27;45277;-76
2022/03/12 00:17:18;;;;;;;3.30;2.03;;;17.50;33.20;;;;;;5122241;27;45516;-76
2022/03/12 00:19:46;;;;;;;2.55;1.95;;;17.50;33.30;;;;;;5120110;27;47240;-75
2022/03/12 00:22:14;;;;;;;2.78;1.95;;;17.50;33.40;;;;;;5127859;27;45183;-75
2022/03/12 00:24:42;;;;;;;2.40;2.00;;;17.50;33.30;;;;;;5123374;27;45238;-75
2022/03/12 00:27:09;;;;;;;2.47;1.85;;;17.50;33.40;;;;;;5125964;27;45483;-75
2022/03/12 00:29:36;;;;;;;1.90;1.52;;;17.50;33.50;;;;;;5120615;27;45416;-75
2022/03/12 00:32:04;;;;;;;2.55;2.00;;;17.50;34.30;;;;;;5115926;27;45378;-75
2022/03/12 00:34:31;;;;;;;4.93;1.60;;;17.40;34.10;;;;;;5110179;27;45261;-76
2022/03/12 00:36:59;;;;;;;3.20;1.90;;;17.40;34.90;;;;;;5116811;27;45439;-76
2022/03/12 00:39:26;;;;;;;2.55;1.67;;;17.40;33.90;;;;;;5113593;27;48242;-75
2022/03/12 00:41:53;;;;;;;2.42;1.70;;;17.40;34.30;;;;;;5111128;27;45163;-76
2022/03/12 00:44:20;;;;;;;2.67;1.63;;;17.40;34.80;;;;;;5124176;27;45324;-75
2022/03/12 00:46:47;;;;;;;2.30;1.70;;;17.40;35.70;;;;;;5123914;27;45326;-76
2022/03/12 00:49:14;;;;;;;1.88;1.50;;;17.40;34.90;;;;;;5113831;27;47431;-75
2022/03/12 00:51:41;;;;;;;2.67;1.70;;;17.40;34.80;;;;;;5108526;27;45175;-76
2022/03/12 00:54:10;;;;;;;3.45;1.95;;;17.40;34.90;;;;;;5129680;27;45626;-77
2022/03/12 00:56:39;;;;;;;2.92;1.92;;;17.40;34.00;;;;;;5130962;27;45366;-77
2022/03/12 00:59:07;;;;;;;2.78;2.00;;;17.50;33.80;;;;;;5128071;27;46165;-76
2022/03/12 01:01:34;;;;;;;2.55;1.70;;;17.50;33.80;;;;;;5124014;27;45232;-75
2022/03/12 01:04:01;;;;;;;2.50;1.65;;;17.50;33.80;;;;;;5124379;27;45354;-75
2022/03/12 01:06:28;;;;;;;4.03;2.00;;;17.60;33.70;;;;;;5128519;27;45212;-74
2022/03/12 01:08:55;;;;;;;2.75;1.77;;;17.60;33.70;;;;;;5129677;27;47175;-74
2022/03/12 01:11:23;;;;;;;2.65;1.80;;;17.60;33.50;;;;;;5128118;27;45442;-75
2022/03/12 01:13:49;;;;;;;2.70;1.50;;;17.60;33.00;;;;;;5123196;27;45490;-75
2022/03/12 01:16:17;;;;;;;2.67;1.92;;;17.60;33.60;;;;;;5129522;27;45576;-75
2022/03/12 01:18:44;;;;;;;3.03;2.03;;;17.50;33.60;;;;;;5127692;27;46269;-75
2022/03/12 01:21:14;;;;;;;3.05;1.92;;;17.50;33.20;;;;;;5127391;27;45306;-74
2022/03/12 01:23:41;;;;;;;2.90;2.03;;;17.60;33.40;;;;;;5126214;27;45335;-74
2022/03/12 01:26:08;;;;;;;2.88;1.73;;;17.50;33.70;;;;;;5129215;27;45291;-75
2022/03/12 01:28:36;;;;;;;4.32;2.33;;;17.50;33.20;;;;;;5129154;27;45299;-75
2022/03/12 01:31:04;;;;;;;3.67;1.88;;;17.50;33.30;;;;;;5129067;27;45226;-75
2022/03/12 01:33:31;;;;;;;2.80;1.90;;;17.50;33.90;;;;;;5127737;27;45198;-74
2022/03/12 01:35:58;;;;;;;2.78;1.90;;;17.50;33.60;;;;;;5129589;27;45345;-75
2022/03/12 01:38:30;;;;;;;2.88;1.80;;;17.50;33.60;;;;;;5121959;27;45466;-75
2022/03/12 01:41:04;;;;;;;2.50;1.60;;;17.50;33.10;;;;;;5124517;27;45356;-75
2022/03/12 01:43:32;;;;;;;2.88;1.95;;;17.50;33.90;;;;;;5128862;27;45237;-75
2022/03/12 01:46:01;;;;;;;2.67;1.80;;;17.50;33.80;;;;;;5116435;27;45169;-75
2022/03/12 01:48:29;;;;;;;2.92;1.92;;;17.50;34.10;;;;;;5110868;27;45504;-75
2022/03/12 01:50:56;;;;;;;3.28;1.83;;;17.60;34.10;;;;;;5128937;27;45212;-75
2022/03/12 01:53:26;;;;;;;2.97;1.75;;;17.60;34.10;;;;;;5130475;27;45337;-75
2022/03/12 01:55:54;;;;;;;3.92;1.83;;;17.60;33.90;;;;;;5126115;27;45382;-75
2022/03/12 01:58:21;;;;;;;4.35;1.67;;;17.60;34.10;;;;;;5128009;27;45293;-75
2022/03/12 02:00:50;;;;;;;2.58;1.98;;;17.60;33.90;;;;;;5124583;27;45224;-75
2022/03/12 02:03:28;;;;;;;3.50;1.83;;;17.60;34.10;;;;;;5118664;27;45124;-75
2022/03/12 02:05:55;;;;;;;2.58;1.92;;;17.60;34.10;;;;;;5120554;27;45358;-75
2022/03/12 02:08:22;;;;;;;2.75;1.73;;;17.60;34.90;;;;;;5125673;27;46194;-75
2022/03/12 02:10:52;;;;;;;2.78;1.60;;;17.60;33.80;;;;;;5128585;27;45620;-75
2022/03/12 02:13:19;;;;;;;2.55;1.88;;;17.50;33.60;;;;;;5129387;27;45219;-75
2022/03/12 02:15:46;;;;;;;3.15;2.40;;;17.50;33.70;;;;;;5130159;27;45316;-77
2022/03/12 02:18:14;;;;;;;3.22;1.77;;;17.50;33.30;;;;;;5128908;27;46578;-76
2022/03/12 02:20:43;;;;;;;2.95;1.70;;;17.50;33.50;;;;;;5137908;27;45858;-77
2022/03/12 02:23:11;;;;;;;3.30;2.03;;;17.50;33.40;;;;;;5128833;27;45557;-75
2022/03/12 02:25:39;;;;;;;3.00;2.10;;;17.50;33.50;;;;;;5129969;27;45444;-76
2022/03/12 02:28:16;;;;;;;2.72;1.75;;;17.50;34.00;;;;;;5129658;27;45314;-74
2022/03/12 02:30:45;;;;;;;2.75;1.73;;;17.50;34.00;;;;;;5110867;27;45280;-75
2022/03/12 02:33:14;;;;;;;2.53;1.70;;;17.50;34.20;;;;;;5129897;27;45148;-75
2022/03/12 02:35:46;;;;;;;3.15;2.03;;;17.50;34.50;;;;;;5127770;27;45357;-75
2022/03/12 02:38:14;;;;;;;1.85;1.50;;;17.50;34.90;;;;;;5123674;27;45340;-75
2022/03/12 02:40:44;;;;;;;2.63;1.70;;;17.50;35.10;;;;;;5113070;27;45320;-74
2022/03/12 02:43:12;;;;;;;3.33;1.90;;;17.50;35.20;;;;;;5138629;27;45243;-77
2022/03/12 02:45:39;;;;;;;2.75;2.00;;;17.50;35.20;;;;;;5132079;27;45490;-77
2022/03/12 02:48:10;;;;;;;2.72;1.60;;;17.50;35.20;;;;;;5128355;27;45375;-77
2022/03/12 02:50:37;;;;;;;2.65;1.85;;;17.60;35.50;;;;;;5129037;27;45153;-77
2022/03/12 02:53:05;;;;;;;2.45;1.67;;;17.60;35.30;;;;;;5128290;27;45462;-76
2022/03/12 02:55:36;;;;;;;3.28;2.00;;;17.50;35.40;;;;;;5132805;27;45228;-76
2022/03/12 02:58:10;;;;;;;2.85;1.95;;;17.60;35.50;;;;;;5136157;27;46155;-76
2022/03/12 03:00:37;;;;;;;2.50;1.80;;;17.50;35.40;;;;;;5123288;27;45601;-76
2022/03/12 03:03:05;;;;;;;3.28;2.30;;;17.50;35.40;;;;;;5122102;27;45252;-76
2022/03/12 03:05:36;;;;;;;2.42;1.90;;;17.50;35.30;;;;;;5127872;27;45827;-77
2022/03/12 03:08:05;;;;;;;2.90;1.88;;;17.50;35.40;;;;;;5128940;27;46374;-76
2022/03/12 03:10:34;;;;;;;2.55;1.75;;;17.50;35.10;;;;;;5126543;27;45195;-76
2022/03/12 03:13:33;;;;;;;3.10;2.00;;;17.50;35.30;;;;;;5126291;27;45337;-76
2022/03/12 03:16:01;;;;;;;2.88;1.90;;;17.50;35.20;;;;;;5127581;27;45368;-76
2022/03/12 03:18:31;;;;;;;3.00;1.95;;;17.50;35.20;;;;;;5127217;27;45192;-76
2022/03/12 03:21:00;;;;;;;2.33;1.80;;;17.50;35.10;;;;;;5128724;27;45187;-76
2022/03/12 03:23:28;;;;;;;3.05;2.17;;;17.50;35.30;;;;;;5127098;27;45206;-76
2022/03/12 03:25:55;;;;;;;3.05;1.90;;;17.50;35.00;;;;;;5126972;27;45373;-76
2022/03/12 03:28:23;;;;;;;4.35;2.30;;;17.50;35.20;;;;;;5127824;27;45238;-76
2022/03/12 03:30:51;;;;;;;3.15;2.20;;;17.50;35.20;;;;;;5123196;27;45408;-76
2022/03/12 03:33:20;;;;;;;2.58;1.58;;;17.50;35.30;;;;;;5128643;27;45181;-76
2022/03/12 03:35:47;;;;;;;3.25;1.90;;;17.50;35.40;;;;;;5127498;27;45392;-76
2022/03/12 03:38:15;;;;;;;4.57;1.90;;;17.50;35.30;;;;;;5123117;27;47068;-76
2022/03/12 03:40:43;;;;;;;3.03;1.83;;;17.50;35.50;;;;;;5127507;27;45248;-76
2022/03/12 03:43:13;;;;;;;3.08;1.77;;;17.50;35.20;;;;;;5125867;27;45309;-76
2022/03/12 03:45:41;;;;;;;3.75;2.25;;;17.50;35.20;;;;;;5126423;27;45154;-77
2022/03/12 03:48:13;;;;;;;2.83;1.92;;;17.50;35.20;;;;;;5127425;27;45648;-76
2022/03/12 03:50:40;;;;;;;2.58;1.85;;;17.50;35.10;;;;;;5126215;27;45278;-76
2022/03/12 03:53:07;;;;;;;2.25;1.70;;;17.50;35.50;;;;;;5135617;27;45258;-76
2022/03/12 03:55:34;;;;;;;2.95;2.17;;;17.50;34.80;;;;;;5129747;27;45370;-76
2022/03/12 03:58:03;;;;;;;2.42;2.15;;;17.50;34.80;;;;;;5127197;27;47108;-76
2022/03/12 04:00:32;;;;;;;2.38;1.90;;;17.50;34.80;;;;;;5126946;27;45319;-77
2022/03/12 04:03:02;;;;;;;3.22;2.10;;;17.50;34.60;;;;;;5128388;27;45146;-76
2022/03/12 04:05:34;;;;;;;4.25;2.00;;;17.50;34.60;;;;;;5121063;27;45309;-76
2022/03/12 04:08:01;;;;;;;1.88;1.67;;;17.40;34.80;;;;;;5126829;27;45479;-76
2022/03/12 04:10:28;;;;;;;2.60;1.80;;;17.40;34.50;;;;;;5125991;27;45237;-76
2022/03/12 04:12:57;;;;;;;4.47;2.40;;;17.40;34.60;;;;;;5128221;27;45367;-76
2022/03/12 04:15:24;;;;;;;2.22;1.98;;;17.40;34.50;;;;;;5127570;27;45409;-77
2022/03/12 04:17:52;;;;;;;2.92;2.08;;;17.40;34.50;;;;;;5127574;27;47934;-76
2022/03/12 04:20:19;;;;;;;3.55;2.20;;;17.40;34.60;;;;;;5131594;27;45438;-76
2022/03/12 04:22:48;;;;;;;3.17;2.25;;;17.40;34.30;;;;;;5131656;27;45274;-76
2022/03/12 04:25:16;;;;;;;3.33;2.17;;;17.40;34.20;;;;;;5131916;27;45300;-76
2022/03/12 04:27:44;;;;;;;2.28;1.88;;;17.40;34.20;;;;;;5121162;27;46303;-76
2022/03/12 04:30:12;;;;;;;2.92;2.10;;;17.50;34.40;;;;;;5129533;27;45196;-76
2022/03/12 04:32:40;;;;;;;2.47;1.80;;;17.50;34.90;;;;;;5130038;27;45691;-76
2022/03/12 04:35:07;;;;;;;2.67;2.13;;;17.50;35.90;;;;;;5131115;27;45387;-76
2022/03/12 04:37:35;;;;;;;3.72;2.00;;;17.50;34.60;;;;;;5131788;27;45484;-76
2022/03/12 04:40:03;;;;;;;3.85;2.20;;;17.50;34.60;;;;;;5129728;27;45491;-76
2022/03/12 04:42:30;;;;;;;2.90;1.92;;;17.50;34.80;;;;;;5129175;27;45203;-76
2022/03/12 04:44:57;;;;;;;2.15;1.67;;;17.50;34.80;;;;;;5131629;27;45688;-76
2022/03/12 04:47:24;;;;;;;3.13;2.08;;;17.50;34.70;;;;;;5127760;27;47412;-76
2022/03/12 04:49:52;;;;;;;3.70;1.70;;;17.50;34.60;;;;;;5128263;27;46248;-76
2022/03/12 04:52:20;;;;;;;1.67;1.52;;;17.50;34.40;;;;;;5131354;27;45180;-76
2022/03/12 04:54:47;;;;;;;3.30;1.85;;;17.50;34.50;;;;;;5127779;27;45201;-76
2022/03/12 04:57:15;;;;;;;2.72;2.03;;;17.50;34.40;;;;;;5116497;27;47274;-76
2022/03/12 04:59:42;;;;;;;3.17;1.88;;;17.50;34.70;;;;;;5129298;27;45152;-76
2022/03/12 05:02:11;;;;;;;2.97;2.30;;;17.40;34.40;;;;;;5128943;27;45270;-76
2022/03/12 05:04:38;;;;;;;2.60;1.80;;;17.40;34.20;;;;;;5130523;27;45225;-76
2022/03/12 05:07:07;;;;;;;3.63;2.30;;;17.40;34.20;;;;;;5141702;27;48262;-76
2022/03/12 05:09:34;;;;;;;4.22;2.60;;;17.40;34.10;;;;;;5130190;27;45184;-76
2022/03/12 05:12:05;;;;;;;3.40;2.25;;;17.40;34.30;;;;;;5129718;27;45222;-76
2022/03/12 05:14:34;;;;;;;2.47;2.03;;;17.40;34.20;;;;;;5130829;27;45411;-75
2022/03/12 05:17:05;;;;;;;2.75;2.10;;;17.40;34.40;;;;;;5116849;27;47317;-76
2022/03/12 05:19:36;;;;;;;3.25;2.00;;;17.40;34.40;;;;;;5108102;27;45791;-76
2022/03/12 05:22:03;;;;;;;3.45;2.20;;;17.40;35.50;;;;;;5110011;27;45141;-75
2022/03/12 05:24:30;;;;;;;3.40;1.95;;;17.40;35.10;;;;;;5108597;27;46497;-76
2022/03/12 05:26:59;;;;;;;3.38;1.95;;;17.40;35.60;;;;;;5106970;27;45972;-76
2022/03/12 05:29:25;;;;;;;2.90;1.90;;;17.30;35.60;;;;;;5108491;27;45159;-76
2022/03/12 05:31:54;;;;;;;2.80;1.73;;;17.40;35.70;;;;;;5106662;27;45445;-76
2022/03/12 05:34:23;;;;;;;3.65;2.13;;;17.40;35.60;;;;;;5100710;27;45385;-76
2022/03/12 05:36:50;;;;;;;3.38;2.15;;;17.40;35.50;;;;;;5103623;27;45310;-76
2022/03/12 05:39:16;;;;;;;2.67;2.05;;;17.40;35.70;;;;;;5100251;27;45182;-76
2022/03/12 05:41:44;;;;;;;3.30;2.17;;;17.40;35.10;;;;;;5108109;27;45241;-76
2022/03/12 05:44:14;;;;;;;3.53;2.20;;;17.40;35.10;;;;;;5109013;27;45431;-76
2022/03/12 05:46:42;;;;;;;3.80;2.67;;;17.40;34.90;;;;;;5108813;27;45462;-76
2022/03/12 05:49:11;;;;;;;2.80;1.90;;;17.40;35.10;;;;;;5103827;27;45628;-76
2022/03/12 05:51:37;;;;;;;3.75;2.17;;;17.40;35.10;;;;;;5109824;27;45444;-76
2022/03/12 05:54:05;;;;;;;4.18;2.40;;;17.30;35.20;;;;;;5100705;27;45443;-76
2022/03/12 05:56:32;;;;;;;4.07;2.05;;;17.30;35.10;;;;;;5108123;27;45665;-76
2022/03/12 05:58:58;;;;;;;4.50;2.67;;;17.30;35.10;;;;;;5106485;27;45238;-76
2022/03/12 06:01:25;;;;;;;3.35;1.98;;;17.30;35.00;;;;;;5106831;27;45377;-76
2022/03/12 06:03:53;;;;;;;5.05;2.28;;;17.30;35.10;;;;;;5109048;27;45417;-76
2022/03/12 06:06:32;;;;;;;4.10;2.47;;;17.30;35.10;;;;;;5106955;27;48215;-76
2022/03/12 06:08:59;;;;;;;3.10;2.17;;;17.30;35.00;;;;;;5108467;27;45250;-76
2022/03/12 06:11:27;;;;;;;3.35;2.17;;;17.30;35.00;;;;;;5111642;27;45335;-76
2022/03/12 06:13:59;;;;;;;3.28;2.17;;;17.30;35.00;;;;;;5106805;27;45243;-76
2022/03/12 06:16:26;;;;;;;2.92;2.20;;;17.30;35.90;;;;;;5108530;27;46444;-76
2022/03/12 06:18:53;;;;;;;3.75;2.22;;;17.30;35.70;;;;;;5104581;27;45213;-76
2022/03/12 06:21:22;;;;;;;3.42;1.95;;;17.30;35.70;;;;;;5102675;27;45195;-76
2022/03/12 06:23:49;;;;;;;2.22;2.00;;;17.30;35.60;;;;;;5096998;27;45435;-76
2022/03/12 06:26:17;;;;;;;3.10;1.90;;;17.30;35.80;;;;;;5101833;27;47153;-76
2022/03/12 06:28:45;;;;;;;4.38;2.20;;;17.40;35.60;;;;;;5104031;27;45324;-76
2022/03/12 06:31:12;;;;;;;2.75;1.67;;;17.30;35.80;;;;;;5105365;27;45289;-76
2022/03/12 06:33:40;;;;;;;4.57;2.17;;;17.40;35.90;;;;;;5109832;27;45242;-76
2022/03/12 06:36:09;;;;;;;4.20;2.15;;;17.30;35.80;;;;;;5108321;27;46218;-76
2022/03/12 06:38:37;;;;;;;2.47;2.05;;;17.40;35.60;;;;;;5106924;27;45248;-76
2022/03/12 06:41:04;;;;;;;3.30;2.40;;;17.30;35.30;;;;;;5111392;27;45257;-76
2022/03/12 06:43:33;;;;;;;3.17;2.08;;;17.30;35.70;;;;;;5109033;27;45363;-76
2022/03/12 06:46:02;;;;;;;2.97;1.90;;;17.30;35.80;;;;;;5106313;27;47377;-76
2022/03/12 06:48:29;;;;;;;3.45;2.22;;;17.30;35.60;;;;;;5108118;27;45222;-76
2022/03/12 06:50:57;;;;;;;2.92;2.00;;;17.30;35.50;;;;;;5107004;27;45188;-78
2022/03/12 06:53:24;;;;;;;5.25;2.55;;;17.30;35.70;;;;;;5109158;27;45568;-76
2022/03/12 06:55:53;;;;;;;4.22;2.20;;;17.30;36.60;;;;;;5106312;27;47932;-76
2022/03/12 06:58:20;;;;;;;6.43;2.40;;;17.30;36.00;;;;;;5107722;27;45594;-76
2022/03/12 07:00:47;;;;;;;2.60;1.92;;;17.30;35.80;;;;;;5100947;27;45483;-76
2022/03/12 07:03:14;;;;;;;3.78;2.28;;;17.30;35.70;;;;;;5104298;27;46039;-76
2022/03/12 07:05:40;;;;;;;3.85;2.30;;;17.30;35.80;;;;;;5107904;27;46998;-76
2022/03/12 07:08:07;;;;;;;5.30;2.30;;;17.30;36.00;;;;;;5105862;27;45387;-76
2022/03/12 07:10:35;;;;;;;2.90;1.98;;;17.30;36.40;;;;;;5107927;27;45254;-76
2022/03/12 07:13:03;;;;;;;5.80;2.35;;;17.30;35.90;;;;;;5108724;27;45092;-75
2022/03/12 07:15:30;;;;;;;4.50;2.45;;;17.40;35.80;;;;;;5106837;27;47024;-76
2022/03/12 07:17:57;;;;;;;4.20;2.40;;;17.40;36.00;;;;;;5108714;27;45220;-76
2022/03/12 07:20:24;;;;;;;2.92;2.20;;;17.40;35.60;;;;;;5104146;27;45277;-76
2022/03/12 07:22:51;;;;;;;4.45;2.60;;;17.40;35.70;;;;;;5110531;27;45343;-76
2022/03/12 07:25:18;;;;;;;3.78;2.28;;;17.40;35.60;;;;;;5114426;27;46348;-76
2022/03/12 07:27:45;;;;;;;4.30;2.38;;;17.40;35.80;;;;;;5103640;27;45362;-76
2022/03/12 07:30:16;;;;;;;4.10;2.50;;;17.40;35.80;;;;;;5110680;27;45425;-76
2022/03/12 07:32:43;;;;;;;3.80;2.50;;;17.40;35.90;;;;;;5106238;27;45295;-77
2022/03/12 07:35:12;;;;;;;12.35;2.25;;;17.40;35.90;;;;;;5107309;27;46175;-76
2022/03/12 07:37:39;;;;;;;4.45;2.20;;;17.50;37.20;;;;;;5108100;27;45311;-76
2022/03/12 07:40:07;;;;;;;3.40;2.13;;;17.50;37.30;;;;;;5105770;27;45359;-76
2022/03/12 07:42:33;;;;;;;4.25;2.10;;;17.50;37.70;;;;;;5101182;27;45330;-76
2022/03/12 07:45:00;;;;;;;2.30;1.80;;;17.50;37.60;;;;;;5107952;27;45400;-76
2022/03/12 07:47:29;;;;;;;3.45;1.95;;;17.60;37.80;;;;;;5102740;27;45276;-76
2022/03/12 07:49:56;;;;;;;5.43;2.20;;;17.60;38.00;;;;;;5106974;27;45326;-76
2022/03/12 07:52:23;;;;;;;3.67;2.10;;;17.60;37.80;;;;;;5109712;27;45216;-76
2022/03/12 07:54:49;;;;;;;13.25;2.03;;;17.60;38.00;;;;;;5110308;27;46589;-77
2022/03/12 07:57:16;;;;;;;2.83;1.80;;;17.60;38.00;;;;;;5111024;27;45640;-76
2022/03/12 07:59:44;;;;;;;2.50;1.80;;;17.50;38.20;;;;;;5107204;27;45375;-75
2022/03/12 08:02:11;;;;;;;3.25;1.80;;;17.50;38.80;;;;;;5109023;27;45519;-76
2022/03/12 08:04:39;;;;;;;4.03;1.67;;;17.50;38.70;;;;;;5108392;27;46142;-76
2022/03/12 08:07:06;;;;;;;3.63;2.13;;;17.50;38.50;;;;;;5106950;27;45353;-75
2022/03/12 08:09:33;;;;;;;4.38;2.10;;;17.50;38.50;;;;;;5110032;27;45315;-76
2022/03/12 08:12:01;;;;;;;2.95;1.90;;;17.50;38.50;;;;;;5110471;27;45455;-75
2022/03/12 08:14:31;;;;;;;3.65;2.20;;;17.50;38.40;;;;;;5108779;27;47097;-76
2022/03/12 08:16:58;;;;;;;5.22;2.60;;;17.50;38.20;;;;;;5108047;27;45285;-76
2022/03/12 08:19:25;;;;;;;3.90;2.53;;;17.50;38.20;;;;;;5109846;27;45339;-75
2022/03/12 08:21:54;;;;;;;4.93;2.60;;;17.50;38.20;;;;;;5108778;27;45314;-75
2022/03/12 08:24:21;;;;;;;4.47;2.60;;;17.50;38.20;;;;;;5108691;27;46698;-75
2022/03/12 08:26:49;;;;;;;2.60;2.05;;;17.50;38.30;;;;;;5106566;27;45790;-75
2022/03/12 08:29:18;;;;;;;5.30;2.58;;;17.50;38.30;;;;;;5107541;27;45446;-76
2022/03/12 08:31:46;;;;;;;7.95;2.55;;;17.40;38.40;;;;;;5109620;27;45108;-76
2022/03/12 08:34:14;;;;;;;2.60;2.30;;;17.40;38.50;;;;;;5109100;27;47113;-75
2022/03/12 08:36:42;;;;;;;4.32;2.63;;;17.40;38.50;;;;;;5111631;27;45296;-77
2022/03/12 08:39:11;;;;;;;3.72;2.55;;;17.40;38.70;;;;;;5107753;27;45301;-77
2022/03/12 08:41:38;;;;;;;6.90;2.50;;;17.40;38.80;;;;;;5107190;27;45247;-76
2022/03/12 08:44:06;;;;;;;4.03;2.67;;;17.40;38.80;;;;;;5100422;27;47330;-76
2022/03/12 08:46:35;;;;;;;4.55;2.58;;;17.40;39.00;;;;;;5099705;27;45438;-76
2022/03/12 08:49:01;;;;;;;4.70;2.35;;;17.40;39.30;;;;;;5109621;27;45167;-77
2022/03/12 08:51:28;;;;;;;6.72;2.58;;;17.40;39.60;;;;;;5110630;27;45766;-76
2022/03/12 08:53:56;;;;;;;7.40;2.08;;;17.40;41.60;;;;;;5107295;27;45282;-76
2022/03/12 08:56:24;;;;;;;4.28;2.15;;;17.40;41.10;;;;;;5108544;27;45342;-76
2022/03/12 08:58:51;;;;;;;5.43;2.30;;;17.40;40.30;;;;;;5108427;27;45314;-76
2022/03/12 09:01:18;;;;;;;4.75;2.03;;;17.50;41.00;;;;;;5106929;27;45318;-76
2022/03/12 09:03:45;;;;;;;2.97;1.77;;;17.50;41.30;;;;;;5106097;27;47099;-76
2022/03/12 09:06:12;;;;;;;3.05;1.98;;;17.50;43.00;;;;;;5104263;27;45507;-76
2022/03/12 09:08:40;;;;;;;2.42;1.60;;;17.50;42.20;;;;;;5105731;27;45326;-75
2022/03/12 09:11:07;;;;;;;4.47;2.22;;;17.60;42.40;;;;;;5109300;27;45233;-75
2022/03/12 09:13:35;;;;;;;3.33;1.85;;;17.60;42.00;;;;;;5110711;27;45295;-76
2022/03/12 09:16:02;;;;;;;2.70;1.80;;;17.60;42.50;;;;;;5107581;27;45888;-75
2022/03/12 09:18:29;;;;;;;1.85;1.42;;;17.60;42.20;;;;;;5109331;27;45233;-75
2022/03/12 09:20:56;;;;;;;3.20;2.13;;;17.60;42.60;;;;;;5108345;27;45366;-76
2022/03/12 09:23:23;;;;;;;4.90;1.80;;;17.60;42.90;;;;;;5109358;27;45388;-76
2022/03/12 09:25:52;;;;;;;2.95;1.80;;;17.50;42.80;;;;;;5107466;27;45217;-76
2022/03/12 09:28:19;;;;;;;4.55;1.90;;;17.40;42.80;;;;;;5106584;27;45396;-76
2022/03/12 09:30:51;;;;;;;2.78;1.85;;;17.40;43.70;;;;;;5109235;27;45599;-76
2022/03/12 09:33:18;;;;;;;3.13;1.77;;;17.40;44.00;;;;;;5107803;27;46435;-76
2022/03/12 09:35:46;;;;;;;3.63;2.00;;;17.40;44.20;;;;;;5107752;27;45619;-76
2022/03/12 09:38:14;;;;;;;2.92;1.98;;;17.50;44.40;;;;;;5108993;27;45410;-76
2022/03/12 09:40:42;;;;;;;3.63;1.70;;;17.40;44.80;;;;;;5109059;27;45410;-76
2022/03/12 09:43:09;;;;;;;2.40;1.50;;;17.40;44.70;;;;;;5112750;27;45504;-75
2022/03/12 09:45:36;;;;;;;3.05;1.50;;;17.40;44.60;;;;;;5097399;27;45179;-76
2022/03/12 09:48:05;;;;;;;3.05;1.58;;;17.40;44.20;;;;;;5104805;27;45297;-75
2022/03/12 09:50:32;;;;;;;1.83;1.33;;;17.40;44.10;;;;;;5101804;27;46009;-76
2022/03/12 09:53:00;;;;;;;3.72;1.63;;;17.40;43.60;;;;;;5099524;27;48019;-76
2022/03/12 09:55:27;;;;;;;2.85;1.45;;;17.40;43.60;;;;;;5106763;27;45516;-76
2022/03/12 09:57:53;;;;;;;4.47;1.50;;;17.40;43.50;;;;;;5109093;27;45272;-76
2022/03/12 10:00:21;;;;;;;2.13;1.40;;;17.50;43.80;;;;;;5101351;27;45548;-77
2022/03/12 10:02:48;;;;;;;2.40;1.45;;;17.50;44.10;;;;;;5108504;27;47905;-76
2022/03/12 10:05:16;;;;;;;1.80;1.38;;;17.50;43.90;;;;;;5110045;27;45279;-76
2022/03/12 10:07:44;;;;;;;1.52;1.33;;;17.50;43.80;;;;;;5109347;27;45232;-76
2022/03/12 10:10:15;;;;;;;1.85;1.15;;;17.50;43.70;;;;;;5108706;27;45300;-75
2022/03/12 10:12:42;;;;;;;1.65;1.05;;;17.60;43.80;;;;;;5106348;27;46321;-78
2022/03/12 10:15:10;;;;;;;2.33;1.30;;;17.60;43.90;;;;;;5106255;27;45522;-76
2022/03/12 10:17:37;;;;;;;1.90;1.27;;;17.60;43.70;;;;;;5108992;27;45306;-75
2022/03/12 10:20:06;;;;;;;1.90;1.17;;;17.60;43.80;;;;;;5108920;27;45304;-76
2022/03/12 10:22:34;;;;;;;1.25;1.08;;;17.60;43.70;;;;;;5107592;27;45995;-76
2022/03/12 10:25:01;;;;;;;1.13;1.00;;;17.60;43.60;;;;;;5107914;27;45277;-76
2022/03/12 10:27:28;;;;;;;1.52;1.10;;;17.60;43.20;;;;;;5107690;27;45522;-76
2022/03/12 10:29:55;;;;;;;1.10;0.80;;;17.60;43.20;;;;;;5108863;27;45139;-76
2022/03/12 10:32:23;;;;;;;1.90;1.10;;;17.60;43.20;;;;;;5106096;27;45623;-78
2022/03/12 10:34:52;;;;;;;1.75;0.95;;;17.60;43.50;;;;;;5108782;27;45386;-76
2022/03/12 10:37:21;;;;;;;0.85;0.75;;;17.70;43.30;;;;;;5107337;27;45152;-76
2022/03/12 10:40:03;;;;;;;1.55;1.08;;;17.70;43.40;;;;;;5106956;27;45271;-76
2022/03/12 10:42:30;;;;;;;1.25;1.02;;;17.70;43.40;;;;;;5109422;27;47438;-76
2022/03/12 10:45:06;;;;;;;1.38;0.80;;;17.70;43.40;;;;;;5108337;27;45207;-75
2022/03/12 10:47:38;;;;;;;1.35;1.05;;;17.70;43.40;;;;;;5109230;27;45286;-75
2022/03/12 10:50:08;;;;;;;2.47;0.90;;;17.70;43.30;;;;;;5106892;27;45386;-76
2022/03/12 10:52:39;;;;;;;1.20;0.90;;;17.70;43.60;;;;;;5112557;27;45273;-76
2022/03/12 10:55:16;;;;;;;1.73;1.00;;;17.70;43.50;;;;;;5115118;27;45210;-76
2022/03/12 10:57:59;;;;;;;2.90;1.00;;;17.70;43.20;;;;;;5108920;27;45288;-75
2022/03/12 11:00:27;;;;;;;1.15;0.98;;;17.70;43.40;;;;;;5105794;27;45267;-76
2022/03/12 11:02:57;;;;;;;2.28;0.90;;;17.80;43.40;;;;;;5106318;27;45241;-76
2022/03/12 11:05:28;;;;;;;2.17;0.95;;;17.70;43.20;;;;;;5107098;27;45433;-76
2022/03/12 11:08:09;;;;;;;1.23;1.05;;;17.70;43.50;;;;;;5106383;27;45475;-76
2022/03/12 11:10:50;;;;;;;1.08;0.90;;;17.80;43.40;;;;;;5104442;27;45356;-77
2022/03/12 11:13:39;;;;;;;1.00;0.80;;;17.80;43.40;;;;;;5106665;27;45631;-77
2022/03/12 11:16:12;;;;;;;1.65;1.20;;;17.80;43.10;;;;;;5105373;27;45352;-77
2022/03/12 11:18:48;;;;;;;1.60;0.82;;;17.70;43.40;;;;;;5108192;27;45268;-77
2022/03/12 11:21:25;;;;;;;1.80;1.10;;;17.70;43.20;;;;;;5109148;27;45240;-77
2022/03/12 11:23:53;;;;;;;1.27;1.02;;;17.70;43.10;;;;;;5104061;27;45454;-77
2022/03/12 11:26:22;;;;;;;2.17;0.95;;;17.70;43.30;;;;;;5108613;27;45206;-77
2022/03/12 11:28:57;;;;;;;1.52;0.80;;;17.70;43.40;;;;;;5106187;27;45297;-77
2022/03/12 11:31:46;;;;;;;1.58;0.90;;;17.70;43.50;;;;;;5105740;27;45192;-77
2022/03/12 11:34:22;;;;;;;1.45;1.02;;;17.70;43.70;;;;;;5108795;27;45203;-77
2022/03/12 11:37:10;;;;;;;2.78;0.85;;;17.60;43.70;;;;;;5108240;27;45249;-77
2022/03/12 11:39:40;;;;;;;2.25;0.98;;;17.60;43.80;;;;;;5106274;27;45244;-76
2022/03/12 11:42:11;;;;;;;1.30;0.90;;;17.70;43.20;;;;;;5107281;27;45310;-77
2022/03/12 11:44:40;;;;;;;1.13;0.98;;;17.70;43.70;;;;;;5108341;27;47082;-77
2022/03/12 11:47:08;;;;;;;2.17;1.05;;;17.70;43.30;;;;;;5107062;27;45166;-76
2022/03/12 11:49:35;;;;;;;0.88;0.77;;;17.70;43.60;;;;;;5107616;27;45217;-76
2022/03/12 11:52:02;;;;;;;1.17;0.70;;;17.70;44.20;;;;;;5106553;27;45494;-76
2022/03/12 11:54:30;;;;;;;1.42;0.98;;;17.70;43.80;;;;;;5107308;27;47069;-76
2022/03/12 11:56:59;;;;;;;1.48;0.77;;;17.80;44.30;;;;;;5107759;27;45272;-76
2022/03/12 11:59:28;;;;;;;1.27;0.93;;;17.80;44.60;;;;;;5107804;27;45178;-76
2022/03/12 12:02:04;;;;;;;2.40;0.90;;;17.80;44.40;;;;;;5101685;27;45529;-76
2022/03/12 12:04:32;;;;;;;1.48;0.80;;;17.80;44.20;;;;;;5111230;27;47154;-76
2022/03/12 12:07:00;;;;;;;2.53;0.90;;;17.80;44.60;;;;;;5107300;27;45537;-76
2022/03/12 12:09:27;;;;;;;2.22;0.80;;;17.70;44.80;;;;;;5105334;27;45405;-76
2022/03/12 12:11:54;;;;;;;1.52;0.63;;;17.70;44.80;;;;;;5085695;27;45281;-76
2022/03/12 12:14:23;;;;;;;0.80;0.70;;;17.70;45.10;;;;;;5097178;27;47303;-76
2022/03/12 12:16:56;;;;;;;1.85;0.85;;;17.70;44.90;;;;;;5105507;27;45171;-76
2022/03/12 12:19:23;;;;;;;0.90;0.63;;;17.70;44.90;;;;;;5106674;27;45212;-76
2022/03/12 12:21:50;;;;;;;3.25;0.90;;;17.70;45.30;;;;;;5107194;27;45195;-76
2022/03/12 12:24:31;;;;;;;0.63;0.50;;;17.70;45.10;;;;;;5107781;27;45392;-76
2022/03/12 12:27:00;;;;;;;1.20;0.90;;;17.70;45.40;;;;;;5103855;27;45342;-76
2022/03/12 12:29:47;;;;;;;1.42;0.80;;;17.70;45.30;;;;;;5104128;27;45363;-76
2022/03/12 12:32:17;;;;;;;1.05;0.70;;;17.70;45.50;;;;;;5105249;27;45316;-76
2022/03/12 12:35:11;;;;;;;0.98;0.85;;;17.70;45.30;;;;;;5107410;27;46533;-76
2022/03/12 12:37:42;;;;;;;1.20;0.57;;;17.70;44.70;;;;;;5086830;28;45196;-76
2022/03/12 12:40:22;;;;;;;0.95;0.80;;;17.70;44.40;;;;;;5088821;27;45285;-76
2022/03/12 12:42:50;;;;;;;1.25;0.77;;;17.70;44.80;;;;;;5095327;27;45701;-76
2022/03/12 12:45:18;;;;;;;1.00;0.70;;;17.70;44.60;;;;;;5109174;27;48347;-76
2022/03/12 12:47:47;;;;;;;0.93;0.60;;;17.70;44.70;;;;;;5109301;27;45277;-76
2022/03/12 12:50:24;;;;;;;1.92;0.75;;;17.70;44.70;;;;;;5110536;27;45296;-76
2022/03/12 12:53:17;;;;;;;2.10;0.65;;;17.70;44.70;;;;;;5111137;27;45406;-76
2022/03/12 12:55:45;;;;;;;1.20;0.85;;;17.80;45.00;;;;;;5075252;27;47988;-76